Cloutierville, Louisiana
Current Conditions -  °F | °C
As of 7:35 PM on Thursday 18 Dec 2014 (Local Time) from KIER Reporting Station
Overcast Overcast  
Wind Chill: 52°   Ceiling: 1000
Heat Index: 52°   Visibility: 10mi
Dew Point: 50°   Wind: 5mph
Humidity: 91%   Direction: 70°ENE
Pressure: 30.15"   Gusts: NA
Location:  31.54°N, 92.92°W
Report Text: KIER 190135Z AUTO 07004KT 10SM OVC010 11/10 A3015 RMK AO2 T01120098
Loading
Personal Weather Stations






























Interactive Weather Map New forecast layout! Learn more

10-Day Weather Forecast

Advertisements
Track Severe Weather on mobile